createdAt,value
2023-05-02T00:00:38.850Z,6.25
2023-05-02T00:03:28.744Z,6.65
2023-05-02T00:06:19.009Z,6.60
2023-05-02T00:09:08.888Z,6.18
2023-05-02T00:11:58.917Z,6.78
2023-05-02T00:14:48.156Z,6.75
2023-05-02T00:17:42.027Z,6.40
2023-05-02T00:20:32.267Z,6.85
2023-05-02T00:23:22.103Z,6.72
2023-05-02T00:26:14.954Z,6.97
2023-05-02T00:29:05.390Z,7.00
2023-05-02T00:31:54.853Z,6.72
2023-05-02T00:34:46.399Z,6.80
2023-05-02T00:37:35.108Z,6.93
2023-05-02T00:40:23.788Z,6.20
2023-05-02T00:43:12.667Z,6.93
2023-05-02T00:46:01.529Z,6.35
2023-05-02T00:48:50.668Z,6.82
2023-05-02T00:51:41.275Z,6.95
2023-05-02T00:54:31.161Z,6.30
2023-05-02T00:57:19.814Z,6.93
2023-05-02T01:00:10.841Z,6.35
2023-05-02T01:03:13.712Z,6.00
2023-05-02T01:06:21.268Z,6.65
2023-05-02T01:09:28.696Z,6.13
2023-05-02T01:12:24.424Z,6.32
2023-05-02T01:15:23.227Z,5.90
2023-05-02T01:18:14.813Z,6.25
2023-05-02T01:21:08.514Z,5.20
2023-05-02T01:24:06.683Z,5.65
2023-05-02T01:27:07.948Z,5.78
2023-05-02T01:30:01.194Z,6.28
2023-05-02T01:32:53.963Z,5.38
2023-05-02T01:35:44.865Z,5.57
2023-05-02T01:38:35.535Z,5.70
2023-05-02T01:41:28.400Z,5.75
2023-05-02T01:44:18.356Z,5.90
2023-05-02T01:47:10.985Z,5.18
2023-05-02T01:50:01.316Z,5.70
2023-05-02T01:52:53.072Z,5.63
2023-05-02T01:55:45.264Z,5.60
2023-05-02T01:58:37.931Z,6.13
2023-05-02T02:01:29.083Z,6.15
2023-05-02T02:04:22.040Z,6.38
2023-05-02T02:07:14.310Z,6.38
2023-05-02T02:10:03.425Z,6.10
2023-05-02T02:12:55.448Z,5.85
2023-05-02T02:15:48.259Z,5.95
2023-05-02T02:18:40.498Z,5.57
2023-05-02T02:21:33.828Z,6.32
2023-05-02T02:24:23.877Z,6.15
2023-05-02T02:27:12.744Z,5.85
2023-05-02T02:30:02.315Z,6.20
2023-05-02T02:32:51.689Z,6.43
2023-05-02T02:35:44.138Z,5.93
2023-05-02T02:38:42.315Z,5.90
2023-05-02T02:41:38.080Z,6.53
2023-05-02T02:44:34.221Z,6.53
2023-05-02T02:47:30.395Z,6.10
2023-05-02T02:50:26.441Z,6.35
2023-05-02T02:53:19.793Z,6.63
2023-05-02T02:56:17.687Z,6.13
2023-05-02T02:59:12.384Z,5.97
2023-05-02T03:02:07.196Z,5.78
2023-05-02T03:04:58.024Z,6.38
2023-05-02T03:07:46.880Z,6.07
2023-05-02T03:10:35.813Z,6.00
2023-05-02T03:13:26.057Z,6.00
2023-05-02T03:16:34.806Z,6.22
2023-05-02T03:19:25.278Z,5.75
2023-05-02T03:22:14.319Z,5.95
2023-05-02T03:25:03.823Z,6.35
2023-05-02T03:27:52.738Z,6.47
2023-05-02T03:30:42.834Z,6.13
2023-05-02T03:33:33.817Z,6.32
2023-05-02T03:36:22.708Z,5.95
2023-05-02T03:39:14.452Z,5.95
2023-05-02T03:42:04.156Z,6.10
2023-05-02T03:44:54.804Z,5.72
2023-05-02T03:47:45.722Z,6.00
2023-05-02T03:50:34.781Z,6.20
2023-05-02T03:53:23.508Z,5.57
2023-05-02T03:56:21.005Z,6.00
2023-05-02T03:59:20.323Z,5.65
2023-05-02T04:02:09.499Z,6.20
2023-05-02T04:05:04.176Z,6.10
2023-05-02T04:07:53.419Z,5.72
2023-05-02T04:10:42.466Z,6.32
2023-05-02T04:13:33.305Z,5.10
2023-05-02T04:16:22.864Z,5.82
2023-05-02T04:19:12.408Z,5.38
2023-05-02T04:22:03.649Z,5.55
2023-05-02T04:24:56.699Z,5.85
2023-05-02T04:27:47.369Z,5.78
2023-05-02T04:30:39.828Z,5.85
2023-05-02T04:33:32.373Z,5.78
2023-05-02T04:36:21.628Z,5.50
2023-05-02T04:39:12.233Z,5.72
2023-05-02T04:42:06.176Z,5.28
2023-05-02T04:45:00.932Z,5.47
2023-05-02T04:47:49.745Z,5.60
2023-05-02T04:50:38.628Z,5.75
2023-05-02T04:53:27.590Z,5.75
2023-05-02T04:56:17.794Z,5.40
2023-05-02T04:59:06.587Z,5.53
2023-05-02T05:01:56.583Z,6.15
2023-05-02T05:04:45.873Z,5.43
2023-05-02T05:07:35.155Z,5.80
2023-05-02T05:10:24.125Z,5.22
2023-05-02T05:13:14.298Z,5.60
2023-05-02T05:16:05.006Z,5.50
2023-05-02T05:18:55.919Z,5.28
2023-05-02T05:21:44.658Z,5.25
2023-05-02T05:24:35.074Z,5.22
2023-05-02T05:27:24.174Z,4.95
2023-05-02T05:30:14.524Z,5.70
2023-05-02T05:33:05.502Z,5.47
2023-05-02T05:35:54.477Z,5.00
2023-05-02T05:38:43.408Z,5.72
2023-05-02T05:41:34.374Z,5.63
2023-05-02T05:44:27.405Z,5.35
2023-05-02T05:47:22.954Z,5.50
2023-05-02T05:50:13.232Z,5.32
2023-05-02T05:53:03.357Z,5.00
2023-05-02T05:55:52.851Z,6.60
2023-05-02T05:58:43.136Z,5.10
2023-05-02T06:01:35.936Z,5.38
2023-05-02T06:04:27.697Z,5.13
2023-05-02T06:07:16.942Z,6.53
2023-05-02T06:10:08.615Z,4.80
2023-05-02T06:12:57.928Z,5.10
2023-05-02T06:15:51.617Z,5.60
2023-05-02T06:18:40.571Z,5.30
2023-05-02T06:21:31.688Z,5.80
2023-05-02T06:24:20.423Z,5.85
2023-05-02T06:27:09.263Z,5.15
2023-05-02T06:29:58.258Z,5.18
2023-05-02T06:32:47.636Z,5.13
2023-05-02T06:35:36.548Z,5.60
2023-05-02T06:38:26.965Z,5.15
2023-05-02T06:41:18.122Z,4.95
2023-05-02T06:44:07.242Z,5.03
2023-05-02T06:46:56.815Z,4.55
2023-05-02T06:49:45.662Z,5.40
2023-05-02T06:52:34.429Z,4.65
2023-05-02T06:55:24.533Z,4.70
2023-05-02T06:58:13.382Z,4.65
2023-05-02T07:01:02.243Z,4.45
2023-05-02T07:03:51.195Z,4.35
2023-05-02T07:06:40.208Z,4.30
2023-05-02T07:09:29.161Z,5.05
2023-05-02T07:12:19.316Z,4.20
2023-05-02T07:15:10.395Z,4.30
2023-05-02T07:17:59.125Z,4.53
2023-05-02T07:20:48.086Z,4.00
2023-05-02T07:23:36.977Z,4.10
2023-05-02T07:26:26.487Z,4.25
2023-05-02T07:29:16.708Z,3.70
2023-05-02T07:32:06.257Z,3.92
2023-05-02T07:34:56.394Z,3.70
2023-05-02T07:37:45.170Z,3.70
2023-05-02T07:40:34.148Z,3.20
2023-05-02T07:43:22.969Z,3.35
2023-05-02T07:46:13.205Z,3.10
2023-05-02T07:49:02.256Z,3.13
2023-05-02T07:51:50.988Z,3.05
2023-05-02T07:54:39.833Z,3.00
2023-05-02T07:57:28.844Z,2.78
2023-05-02T08:00:18.657Z,3.30
2023-05-02T08:03:08.955Z,2.75
2023-05-02T08:05:57.746Z,2.83
2023-05-02T08:08:46.425Z,3.10
2023-05-02T08:11:35.144Z,2.72
2023-05-02T08:14:23.912Z,3.40
2023-05-02T08:17:21.637Z,3.13
2023-05-02T08:20:13.159Z,3.90
2023-05-02T08:23:03.682Z,3.30
2023-05-02T08:25:52.537Z,3.38
2023-05-02T08:28:41.319Z,3.30
2023-05-02T08:31:30.068Z,3.13
2023-05-02T08:34:18.824Z,3.20
2023-05-02T08:37:12.307Z,3.30
2023-05-02T08:40:02.365Z,3.58
2023-05-02T08:42:53.227Z,3.75
2023-05-02T08:45:43.326Z,4.03
2023-05-02T08:48:33.281Z,3.67
2023-05-02T08:51:25.711Z,3.60
2023-05-02T08:54:18.733Z,3.65
2023-05-02T08:57:07.863Z,3.80
2023-05-02T08:59:56.641Z,4.15
2023-05-02T09:03:00.129Z,4.00
2023-05-02T09:05:54.145Z,3.90
2023-05-02T09:08:44.044Z,4.07
2023-05-02T09:11:34.440Z,4.22
2023-05-02T09:14:24.056Z,4.38
2023-05-02T09:17:12.919Z,4.35
2023-05-02T09:20:02.292Z,4.70
2023-05-02T09:22:52.511Z,4.15
2023-05-02T09:25:41.725Z,4.28
2023-05-02T09:28:42.597Z,4.13
2023-05-02T09:31:54.045Z,4.50
2023-05-02T09:35:07.008Z,4.43
2023-05-02T09:37:57.120Z,4.57
2023-05-02T09:40:56.218Z,4.45
2023-05-02T09:43:57.254Z,4.22
2023-05-02T09:46:48.004Z,4.40
2023-05-02T09:49:44.951Z,4.80
2023-05-02T09:52:34.024Z,4.75
2023-05-02T09:55:22.852Z,5.15
2023-05-02T09:58:22.647Z,5.38
2023-05-02T10:01:18.168Z,4.72
2023-05-02T10:04:07.022Z,5.85
2023-05-02T10:06:56.892Z,4.82
2023-05-02T10:09:47.122Z,5.53
2023-05-02T10:12:36.436Z,5.82
2023-05-02T10:15:28.282Z,5.93
2023-05-02T10:18:29.529Z,4.97
2023-05-02T10:21:21.477Z,5.72
2023-05-02T10:24:11.318Z,6.07
2023-05-02T10:27:05.067Z,6.30
2023-05-02T10:29:55.094Z,6.45
2023-05-02T10:32:49.971Z,6.25
2023-05-02T10:35:46.766Z,5.93
2023-05-02T10:38:37.363Z,5.60
2023-05-02T10:41:32.057Z,5.88
2023-05-02T10:44:37.319Z,5.05
2023-05-02T10:47:31.295Z,5.55
2023-05-02T10:50:21.870Z,6.05
2023-05-02T10:53:30.608Z,5.78
2023-05-02T10:56:22.314Z,6.13
2023-05-02T10:59:29.502Z,6.57
2023-05-02T11:02:48.930Z,6.05
2023-05-02T11:06:08.236Z,6.53
2023-05-02T11:09:30.290Z,7.20
2023-05-02T11:12:48.779Z,6.80
2023-05-02T11:15:58.034Z,6.90
2023-05-02T11:19:02.512Z,6.53
2023-05-02T11:21:53.839Z,7.22
2023-05-02T11:24:44.784Z,7.57
2023-05-02T11:27:39.621Z,8.20
2023-05-02T11:30:48.694Z,8.95
2023-05-02T11:33:37.805Z,8.85
2023-05-02T11:36:31.022Z,9.02
2023-05-02T11:39:23.682Z,8.65
2023-05-02T11:42:12.550Z,9.23
2023-05-02T11:45:02.521Z,9.50
2023-05-02T11:47:53.485Z,8.95
2023-05-02T11:50:49.709Z,8.38
2023-05-02T11:53:42.741Z,8.30
2023-05-02T11:56:31.945Z,7.97
2023-05-02T11:59:20.702Z,7.90
2023-05-02T12:02:09.530Z,7.82
2023-05-02T12:04:59.984Z,8.32
2023-05-02T12:07:49.458Z,7.70
2023-05-02T12:10:38.822Z,7.85
2023-05-02T12:13:28.253Z,7.80
2023-05-02T12:16:17.651Z,8.45
2023-05-02T12:19:07.188Z,9.10
2023-05-02T12:21:57.452Z,9.70
2023-05-02T12:24:46.649Z,10.95
2023-05-02T12:27:35.661Z,9.88
2023-05-02T12:30:27.813Z,10.35
2023-05-02T12:33:17.915Z,10.63
2023-05-02T12:36:13.278Z,11.13
2023-05-02T12:39:09.617Z,10.18
2023-05-02T12:42:07.826Z,9.63
2023-05-02T12:45:02.524Z,9.82
2023-05-02T12:47:53.282Z,10.02
2023-05-02T12:50:44.131Z,9.70
2023-05-02T12:53:46.392Z,8.63
2023-05-02T12:56:43.758Z,5.82
2023-05-02T12:59:34.744Z,5.20
2023-05-02T13:02:23.879Z,5.53
2023-05-02T13:05:16.729Z,6.18
2023-05-02T13:08:06.331Z,5.90
2023-05-02T13:10:55.255Z,5.82
2023-05-02T13:13:45.844Z,6.15
2023-05-02T13:16:36.815Z,7.05
2023-05-02T13:19:25.825Z,7.25
2023-05-02T13:22:14.947Z,7.32
2023-05-02T13:25:08.161Z,6.80
2023-05-02T13:27:56.989Z,6.90
2023-05-02T13:30:47.270Z,5.70
2023-05-02T13:33:36.136Z,5.30
2023-05-02T13:36:24.992Z,5.43
2023-05-02T13:39:14.096Z,5.47
2023-05-02T13:42:04.532Z,4.93
2023-05-02T13:44:54.915Z,5.25
2023-05-02T13:47:45.215Z,5.20
2023-05-02T13:50:37.415Z,5.30
2023-05-02T13:53:26.355Z,4.85
2023-05-02T13:56:15.363Z,4.70
2023-05-02T13:59:06.059Z,4.53
2023-05-02T14:01:56.548Z,4.55
2023-05-02T14:04:46.823Z,8.10
2023-05-02T14:07:35.594Z,5.70
2023-05-02T14:10:24.507Z,4.90
2023-05-02T14:13:13.250Z,4.95
2023-05-02T14:16:02.617Z,4.70
2023-05-02T14:18:51.578Z,10.40
2023-05-02T14:21:41.779Z,5.85
2023-05-02T14:24:30.849Z,5.50
2023-05-02T14:27:19.667Z,5.35
2023-05-02T14:30:09.849Z,5.70
2023-05-02T14:32:58.706Z,5.05
2023-05-02T14:35:47.585Z,5.82
2023-05-02T14:38:37.879Z,6.30
2023-05-02T14:41:27.801Z,6.05
2023-05-02T14:44:16.673Z,5.82
2023-05-02T14:47:05.614Z,5.57
2023-05-02T14:49:54.471Z,4.95
2023-05-02T14:52:43.342Z,5.30
2023-05-02T14:55:38.822Z,5.35
2023-05-02T14:58:27.801Z,5.35
2023-05-02T15:01:20.863Z,4.90
2023-05-02T15:04:10.691Z,4.75
2023-05-02T15:07:01.418Z,5.15
2023-05-02T15:09:50.396Z,4.88
2023-05-02T15:12:40.867Z,6.82
2023-05-02T15:15:30.060Z,5.35
2023-05-02T15:18:19.008Z,4.70
2023-05-02T15:21:07.855Z,4.82
2023-05-02T15:23:56.513Z,5.40
2023-05-02T15:26:45.657Z,5.55
2023-05-02T15:29:35.934Z,5.47
2023-05-02T15:32:24.589Z,4.80
2023-05-02T15:35:13.324Z,4.93
2023-05-02T15:38:02.312Z,5.13
2023-05-02T15:40:57.955Z,4.93
2023-05-02T15:43:46.701Z,5.07
2023-05-02T15:46:36.752Z,5.00
2023-05-02T15:49:31.965Z,4.60
2023-05-02T15:52:20.853Z,4.78
2023-05-02T15:55:10.292Z,5.40
2023-05-02T15:57:59.180Z,5.45
2023-05-02T16:00:48.070Z,4.65
2023-05-02T16:03:38.346Z,4.75
2023-05-02T16:06:27.783Z,5.43
2023-05-02T16:09:16.611Z,5.10
2023-05-02T16:12:07.386Z,5.50
2023-05-02T16:14:56.117Z,5.25
2023-05-02T16:17:44.921Z,5.00
2023-05-02T16:20:36.815Z,5.05
2023-05-02T16:23:26.011Z,5.13
2023-05-02T16:26:15.299Z,5.40
2023-05-02T16:29:04.095Z,4.95
2023-05-02T16:31:52.852Z,4.93
2023-05-02T16:34:45.216Z,5.82
2023-05-02T16:37:36.700Z,4.97
2023-05-02T16:40:27.693Z,5.20
2023-05-02T16:43:17.561Z,4.45
2023-05-02T16:46:07.750Z,5.35
2023-05-02T16:48:56.604Z,4.80
2023-05-02T16:51:45.400Z,5.40
2023-05-02T16:54:35.599Z,5.18
2023-05-02T16:57:24.553Z,4.97
2023-05-02T17:00:15.110Z,5.28
2023-05-02T17:03:05.427Z,5.55
2023-05-02T17:05:54.599Z,5.95
2023-05-02T17:08:43.308Z,6.82
2023-05-02T17:11:33.705Z,5.70
2023-05-02T17:14:22.463Z,5.18
2023-05-02T17:17:11.605Z,5.70
2023-05-02T17:20:01.376Z,5.00
2023-05-02T17:22:50.151Z,5.63
2023-05-02T17:25:39.594Z,5.20
2023-05-02T17:28:29.702Z,5.13
2023-05-02T17:31:18.576Z,5.70
2023-05-02T17:34:07.426Z,5.60
2023-05-02T17:36:56.440Z,5.35
2023-05-02T17:39:45.809Z,5.45
2023-05-02T17:42:34.598Z,5.70
2023-05-02T17:45:25.129Z,5.38
2023-05-02T17:48:14.214Z,5.53
2023-05-02T17:51:03.576Z,5.60
2023-05-02T17:53:52.941Z,5.93
2023-05-02T17:56:42.754Z,5.78
2023-05-02T17:59:31.749Z,5.60
2023-05-02T18:02:22.728Z,4.97
2023-05-02T18:05:12.230Z,5.93
2023-05-02T18:08:01.183Z,6.00
2023-05-02T18:10:49.904Z,5.72
2023-05-02T18:13:39.758Z,5.97
2023-05-02T18:16:29.253Z,5.35
2023-05-02T18:19:20.055Z,5.40
2023-05-02T18:22:08.970Z,5.40
2023-05-02T18:24:57.859Z,5.68
2023-05-02T18:27:46.748Z,5.57
2023-05-02T18:30:37.913Z,5.95
2023-05-02T18:33:26.778Z,5.95
2023-05-02T18:36:19.458Z,6.30
2023-05-02T18:39:08.332Z,6.07
2023-05-02T18:41:57.088Z,5.75
2023-05-02T18:44:45.818Z,6.65
2023-05-02T18:47:35.073Z,6.55
2023-05-02T18:50:26.278Z,6.70
2023-05-02T18:53:16.915Z,6.60
2023-05-02T18:56:12.501Z,8.00
2023-05-02T18:59:02.330Z,6.80
2023-05-02T19:01:51.184Z,6.75
2023-05-02T19:04:39.986Z,6.50
2023-05-02T19:07:28.945Z,7.25
2023-05-02T19:10:19.269Z,6.53
2023-05-02T19:13:08.027Z,6.03
2023-05-02T19:15:56.920Z,5.72
2023-05-02T19:18:45.736Z,5.43
2023-05-02T19:21:35.457Z,5.65
2023-05-02T19:24:24.613Z,5.53
2023-05-02T19:27:14.788Z,6.05
2023-05-02T19:30:04.530Z,6.35
2023-05-02T19:32:53.412Z,6.65
2023-05-02T19:35:42.698Z,6.78
2023-05-02T19:38:31.474Z,6.47
2023-05-02T19:41:20.423Z,7.10
2023-05-02T19:44:11.024Z,6.80
2023-05-02T19:46:59.922Z,6.82
2023-05-02T19:49:48.689Z,7.35
2023-05-02T19:52:39.179Z,7.03
2023-05-02T19:55:28.269Z,7.80
2023-05-02T19:58:17.240Z,7.03
2023-05-02T20:01:07.611Z,7.40
2023-05-02T20:03:56.753Z,7.90
2023-05-02T20:06:45.826Z,7.35
2023-05-02T20:09:34.692Z,7.75
2023-05-02T20:12:23.582Z,7.43
2023-05-02T20:15:13.161Z,7.38
2023-05-02T20:18:28.713Z,7.15
2023-05-02T20:21:17.739Z,7.05
2023-05-02T20:24:07.328Z,7.28
2023-05-02T20:26:56.231Z,6.10
2023-05-02T20:29:44.912Z,6.72
2023-05-02T20:32:34.237Z,6.45
2023-05-02T20:35:24.613Z,6.72
2023-05-02T20:38:13.658Z,6.20
2023-05-02T20:41:07.872Z,5.95
2023-05-02T20:43:57.382Z,6.00
2023-05-02T20:46:51.629Z,5.72
2023-05-02T20:49:40.689Z,6.32
2023-05-02T20:52:30.963Z,6.25
2023-05-02T20:55:22.858Z,5.60
2023-05-02T20:58:11.613Z,5.40
2023-05-02T21:01:01.040Z,5.53
2023-05-02T21:03:49.820Z,6.32
2023-05-02T21:06:39.069Z,5.30
2023-05-02T21:09:29.533Z,5.53
2023-05-02T21:12:18.660Z,5.22
2023-05-02T21:15:09.025Z,5.90
2023-05-02T21:18:04.859Z,5.90
2023-05-02T21:20:53.743Z,5.57
2023-05-02T21:23:42.467Z,6.15
2023-05-02T21:26:32.569Z,5.70
2023-05-02T21:29:21.371Z,5.82
2023-05-02T21:32:10.205Z,5.35
2023-05-02T21:34:59.109Z,5.38
2023-05-02T21:37:48.084Z,5.80
2023-05-02T21:40:38.159Z,5.20
2023-05-02T21:43:29.708Z,5.45
2023-05-02T21:46:18.519Z,5.25
2023-05-02T21:49:07.642Z,5.13
2023-05-02T21:51:58.450Z,5.90
2023-05-02T21:54:50.135Z,5.70
2023-05-02T21:57:39.471Z,5.35
2023-05-02T22:00:29.746Z,5.30
2023-05-02T22:03:18.859Z,5.57
2023-05-02T22:06:08.130Z,5.20
2023-05-02T22:08:56.988Z,5.10
2023-05-02T22:11:45.673Z,5.28
2023-05-02T22:14:44.472Z,5.18
2023-05-02T22:17:35.760Z,5.47
2023-05-02T22:20:25.318Z,5.30
2023-05-02T22:23:14.359Z,5.13
2023-05-02T22:26:03.412Z,5.00
2023-05-02T22:28:52.176Z,5.68
2023-05-02T22:31:40.903Z,5.63
2023-05-02T22:34:31.068Z,5.25
2023-05-02T22:37:19.786Z,5.15
2023-05-02T22:40:10.388Z,4.43
2023-05-02T22:42:59.063Z,4.13
2023-05-02T22:45:49.544Z,3.97
2023-05-02T22:48:40.847Z,3.97
2023-05-02T22:51:31.045Z,3.03
2023-05-02T22:54:21.438Z,2.85
2023-05-02T22:57:10.238Z,3.03
2023-05-02T22:59:59.088Z,2.80
2023-05-02T23:02:47.823Z,2.72
2023-05-02T23:05:36.645Z,2.95
2023-05-02T23:08:27.275Z,3.15
2023-05-02T23:11:16.129Z,3.00
2023-05-02T23:14:04.880Z,2.58
2023-05-02T23:16:54.771Z,2.78
2023-05-02T23:19:43.505Z,2.13
2023-05-02T23:22:32.387Z,2.75
2023-05-02T23:25:24.437Z,2.65
2023-05-02T23:28:13.379Z,3.05
2023-05-02T23:31:02.254Z,2.20
2023-05-02T23:33:51.089Z,2.67
2023-05-02T23:36:40.056Z,3.00
2023-05-02T23:39:28.919Z,2.53
2023-05-02T23:42:19.516Z,2.40
2023-05-02T23:45:09.332Z,3.13
2023-05-02T23:47:58.089Z,2.85
2023-05-02T23:50:46.814Z,2.33
2023-05-02T23:53:35.575Z,2.38
2023-05-02T23:56:24.218Z,2.70
2023-05-02T23:59:14.289Z,2.83
